createdAt,value
2023-02-01T00:00:55.954Z,0
2023-02-01T00:01:55.910Z,0
2023-02-01T00:02:55.909Z,0
2023-02-01T00:03:55.954Z,0
2023-02-01T00:04:55.907Z,0
2023-02-01T00:05:55.931Z,0
2023-02-01T00:06:55.912Z,0
2023-02-01T00:07:55.913Z,0
2023-02-01T00:08:55.948Z,0
2023-02-01T00:09:55.925Z,0
2023-02-01T00:10:55.909Z,0
2023-02-01T00:11:55.910Z,0
2023-02-01T00:12:55.914Z,0
2023-02-01T00:13:55.931Z,0
2023-02-01T00:14:55.914Z,0
2023-02-01T00:15:55.939Z,0
2023-02-01T00:16:55.956Z,0
2023-02-01T00:17:55.924Z,0
2023-02-01T00:18:55.923Z,0
2023-02-01T00:19:55.912Z,0
2023-02-01T00:20:55.919Z,0
2023-02-01T00:21:55.922Z,0
2023-02-01T00:22:55.941Z,0
2023-02-01T00:23:55.922Z,0
2023-02-01T00:24:55.923Z,0
2023-02-01T00:25:55.932Z,0
2023-02-01T00:26:55.965Z,0
2023-02-01T00:27:55.932Z,0
2023-02-01T00:28:55.933Z,0
2023-02-01T00:29:55.945Z,0
2023-02-01T00:30:56.000Z,0
2023-02-01T00:31:55.998Z,0
2023-02-01T00:32:55.948Z,0
2023-02-01T00:33:55.927Z,0
2023-02-01T00:34:55.932Z,0
2023-02-01T00:35:55.932Z,0
2023-02-01T00:36:55.922Z,2.6
2023-02-01T00:37:55.944Z,3.6
2023-02-01T00:38:55.934Z,5.4
2023-02-01T00:39:55.939Z,3.9000000000000004
2023-02-01T00:40:55.941Z,3.2
2023-02-01T00:41:55.930Z,3.5
2023-02-01T00:42:55.928Z,1.5
2023-02-01T00:43:55.938Z,2.1
2023-02-01T00:44:55.940Z,0.9
2023-02-01T00:45:55.936Z,0
2023-02-01T00:46:55.985Z,0
2023-02-01T00:47:55.943Z,0
2023-02-01T00:48:55.969Z,0
2023-02-01T00:49:55.941Z,0
2023-02-01T00:50:55.942Z,2.7
2023-02-01T00:51:55.952Z,0
2023-02-01T00:52:55.972Z,0
2023-02-01T00:53:55.948Z,0
2023-02-01T00:54:55.943Z,0
2023-02-01T00:55:55.953Z,0
2023-02-01T00:56:55.949Z,0
2023-02-01T00:57:55.953Z,0
2023-02-01T00:58:55.943Z,0
2023-02-01T00:59:55.947Z,0
2023-02-01T01:00:56.037Z,0
2023-02-01T01:01:56.029Z,0
2023-02-01T01:02:55.944Z,0
2023-02-01T01:03:55.957Z,0
2023-02-01T01:04:55.985Z,0
2023-02-01T01:05:55.955Z,0
2023-02-01T01:06:55.949Z,0
2023-02-01T01:07:55.972Z,4
2023-02-01T01:08:55.976Z,4
2023-02-01T01:09:55.975Z,4.800000000000001
2023-02-01T01:10:55.956Z,2.5
2023-02-01T01:11:55.962Z,1.1
2023-02-01T01:12:55.969Z,0
2023-02-01T01:13:55.989Z,0
2023-02-01T01:14:55.950Z,0
2023-02-01T01:15:55.975Z,0
2023-02-01T01:16:55.956Z,0
2023-02-01T01:17:55.983Z,0
2023-02-01T01:18:55.964Z,0
2023-02-01T01:19:57.205Z,0
2023-02-01T01:20:55.990Z,0
2023-02-01T01:21:55.965Z,0
2023-02-01T01:22:55.976Z,0
2023-02-01T01:23:55.983Z,0
2023-02-01T01:24:55.971Z,0
2023-02-01T01:25:55.978Z,0
2023-02-01T01:26:56.029Z,0
2023-02-01T01:27:55.964Z,0
2023-02-01T01:28:55.974Z,0
2023-02-01T01:29:55.976Z,0
2023-02-01T01:30:56.021Z,0
2023-02-01T01:31:55.989Z,0
2023-02-01T01:32:55.992Z,0
2023-02-01T01:33:55.989Z,0
2023-02-01T01:34:55.970Z,0
2023-02-01T01:35:55.977Z,0
2023-02-01T01:36:56.002Z,0
2023-02-01T01:37:55.982Z,0
2023-02-01T01:38:55.986Z,0
2023-02-01T01:39:55.976Z,0
2023-02-01T01:40:55.985Z,0
2023-02-01T01:41:55.993Z,0
2023-02-01T01:42:55.984Z,0
2023-02-01T01:43:55.993Z,0
2023-02-01T01:44:55.991Z,0
2023-02-01T01:45:56.040Z,0
2023-02-01T01:46:56.009Z,0
2023-02-01T01:47:55.991Z,0
2023-02-01T01:48:55.970Z,0
2023-02-01T01:49:55.986Z,0
2023-02-01T01:50:55.992Z,0
2023-02-01T01:51:55.984Z,0
2023-02-01T01:52:56.018Z,0
2023-02-01T01:53:55.986Z,0
2023-02-01T01:54:55.981Z,0
2023-02-01T01:55:55.983Z,0
2023-02-01T01:56:55.999Z,0
2023-02-01T01:57:55.990Z,0
2023-02-01T01:58:55.979Z,0
2023-02-01T01:59:55.999Z,0
2023-02-01T02:00:56.043Z,5.7
2023-02-01T02:01:56.051Z,4.2
2023-02-01T02:02:56.002Z,0
2023-02-01T02:03:55.995Z,0
2023-02-01T02:04:56.006Z,0
2023-02-01T02:05:55.999Z,0
2023-02-01T02:06:55.991Z,0
2023-02-01T02:07:56.006Z,0
2023-02-01T02:08:56.025Z,0
2023-02-01T02:10:00.711Z,0
2023-02-01T02:10:55.993Z,0
2023-02-01T02:11:56.000Z,0
2023-02-01T02:12:56.001Z,0
2023-02-01T02:13:55.995Z,0
2023-02-01T02:14:55.998Z,0
2023-02-01T02:15:55.992Z,0
2023-02-01T02:16:56.014Z,0
2023-02-01T02:17:55.992Z,0
2023-02-01T02:18:55.999Z,0
2023-02-01T02:19:56.014Z,0
2023-02-01T02:20:55.997Z,0
2023-02-01T02:21:56.004Z,0
2023-02-01T02:22:55.997Z,0
2023-02-01T02:23:56.000Z,0
2023-02-01T02:24:56.026Z,0
2023-02-01T02:25:55.992Z,0
2023-02-01T02:26:56.018Z,0
2023-02-01T02:27:56.024Z,0
2023-02-01T02:28:56.008Z,0
2023-02-01T02:29:56.017Z,0
2023-02-01T02:30:56.099Z,0
2023-02-01T02:31:56.062Z,0
2023-02-01T02:32:56.001Z,0
2023-02-01T02:33:55.999Z,0
2023-02-01T02:34:56.004Z,0
2023-02-01T02:35:56.008Z,0
2023-02-01T02:36:56.019Z,0
2023-02-01T02:37:56.015Z,0
2023-02-01T02:38:56.026Z,0
2023-02-01T02:39:56.024Z,0
2023-02-01T02:40:56.031Z,0
2023-02-01T02:41:56.007Z,0
2023-02-01T02:42:57.544Z,0
2023-02-01T02:43:56.023Z,0
2023-02-01T02:44:56.005Z,0
2023-02-01T02:45:56.029Z,0
2023-02-01T02:46:56.018Z,0
2023-02-01T02:47:56.008Z,0
2023-02-01T02:48:56.029Z,0
2023-02-01T02:49:56.018Z,0
2023-02-01T02:50:56.009Z,0
2023-02-01T02:51:56.010Z,0
2023-02-01T02:52:56.022Z,0
2023-02-01T02:53:56.023Z,0
2023-02-01T02:54:56.012Z,0
2023-02-01T02:55:56.013Z,0
2023-02-01T02:56:56.038Z,0
2023-02-01T02:57:56.011Z,0
2023-02-01T02:58:56.014Z,0
2023-02-01T02:59:56.023Z,0
2023-02-01T03:00:56.089Z,0
2023-02-01T03:01:56.015Z,0
2023-02-01T03:02:56.044Z,0
2023-02-01T03:03:56.016Z,0
2023-02-01T03:04:56.021Z,0
2023-02-01T03:05:56.029Z,0
2023-02-01T03:06:56.010Z,0
2023-02-01T03:07:56.032Z,0
2023-02-01T03:08:56.024Z,0
2023-02-01T03:09:56.020Z,0
2023-02-01T03:10:56.016Z,0
2023-02-01T03:11:56.025Z,0
2023-02-01T03:12:56.133Z,0
2023-02-01T03:13:56.012Z,0
2023-02-01T03:14:56.022Z,0
2023-02-01T03:15:56.043Z,0
2023-02-01T03:16:56.025Z,0
2023-02-01T03:17:56.028Z,0
2023-02-01T03:18:56.021Z,0
2023-02-01T03:19:56.036Z,0
2023-02-01T03:20:56.027Z,0
2023-02-01T03:21:56.028Z,0
2023-02-01T03:22:56.034Z,0
2023-02-01T03:23:56.027Z,2.4000000000000004
2023-02-01T03:24:56.046Z,3.6
2023-02-01T03:25:56.035Z,2.2
2023-02-01T03:26:56.071Z,4.1000000000000005
2023-02-01T03:27:56.031Z,3.3000000000000003
2023-02-01T03:28:56.058Z,3.3000000000000003
2023-02-01T03:29:56.027Z,3.1
2023-02-01T03:30:56.084Z,2.7
2023-02-01T03:31:56.136Z,1.8
2023-02-01T03:32:56.028Z,3.3000000000000003
2023-02-01T03:33:56.021Z,4.4
2023-02-01T03:34:56.041Z,2
2023-02-01T03:35:56.042Z,0
2023-02-01T03:36:56.037Z,0
2023-02-01T03:37:56.036Z,0
2023-02-01T03:38:56.060Z,0
2023-02-01T03:39:56.033Z,0
2023-02-01T03:40:56.035Z,0
2023-02-01T03:41:56.037Z,0
2023-02-01T03:42:56.042Z,0
2023-02-01T03:43:56.065Z,0
2023-02-01T03:44:56.067Z,0
2023-02-01T03:45:56.073Z,0
2023-02-01T03:46:56.062Z,0
2023-02-01T03:47:56.042Z,5.5
2023-02-01T03:48:56.052Z,5.1000000000000005
2023-02-01T03:49:56.052Z,7.1000000000000005
2023-02-01T03:50:56.050Z,5.2
2023-02-01T03:51:56.183Z,5.4
2023-02-01T03:52:56.035Z,4.7
2023-02-01T03:53:56.041Z,4.1000000000000005
2023-02-01T03:54:56.044Z,4.4
2023-02-01T03:55:56.042Z,4
2023-02-01T03:56:56.044Z,3.9000000000000004
2023-02-01T03:57:56.058Z,4.1000000000000005
2023-02-01T03:58:56.041Z,3.6
2023-02-01T03:59:56.052Z,6.1000000000000005
2023-02-01T04:00:56.133Z,6.300000000000001
2023-02-01T04:01:56.045Z,4.7
2023-02-01T04:02:56.050Z,5.1000000000000005
2023-02-01T04:03:56.042Z,5.300000000000001
2023-02-01T04:04:56.050Z,6
2023-02-01T04:05:56.065Z,4.2
2023-02-01T04:06:56.052Z,3
2023-02-01T04:07:56.049Z,3.7
2023-02-01T04:08:56.052Z,2.8000000000000003
2023-02-01T04:09:56.053Z,2.6
2023-02-01T04:10:56.048Z,2.6
2023-02-01T04:11:56.048Z,1.2000000000000002
2023-02-01T04:12:56.049Z,1.2000000000000002
2023-02-01T04:13:56.046Z,0
2023-02-01T04:14:56.053Z,0
2023-02-01T04:15:56.055Z,0
2023-02-01T04:16:56.128Z,0
2023-02-01T04:17:56.048Z,3.2
2023-02-01T04:18:56.052Z,2.9000000000000004
2023-02-01T04:19:56.050Z,0
2023-02-01T04:20:56.052Z,0
2023-02-01T04:21:56.060Z,0
2023-02-01T04:22:56.076Z,0
2023-02-01T04:23:56.053Z,0
2023-02-01T04:24:56.067Z,0
2023-02-01T04:25:56.059Z,0
2023-02-01T04:26:56.049Z,0
2023-02-01T04:27:56.047Z,0
2023-02-01T04:28:56.075Z,3.5
2023-02-01T04:29:58.358Z,3
2023-02-01T04:30:56.166Z,4.9
2023-02-01T04:31:56.073Z,3.9000000000000004
2023-02-01T04:32:56.086Z,0
2023-02-01T04:33:56.053Z,0
2023-02-01T04:34:56.074Z,4.5
2023-02-01T04:35:56.075Z,3.6
2023-02-01T04:36:56.066Z,3.4000000000000004
2023-02-01T04:37:56.060Z,3.6
2023-02-01T04:38:56.069Z,3.2
2023-02-01T04:39:56.052Z,4.2
2023-02-01T04:40:56.054Z,5
2023-02-01T04:41:56.074Z,4
2023-02-01T04:42:56.062Z,3
2023-02-01T04:43:56.058Z,4.3
2023-02-01T04:44:56.060Z,4.7
2023-02-01T04:45:56.115Z,2.5
2023-02-01T04:46:56.064Z,2.9000000000000004
2023-02-01T04:47:56.050Z,1.6
2023-02-01T04:48:56.102Z,0
2023-02-01T04:49:56.062Z,0
2023-02-01T04:50:56.068Z,0
2023-02-01T04:51:56.063Z,1
2023-02-01T04:52:56.059Z,0
2023-02-01T04:53:56.057Z,0
2023-02-01T04:54:57.857Z,0
2023-02-01T04:55:56.072Z,0
2023-02-01T04:56:56.070Z,0
2023-02-01T04:57:56.067Z,0
2023-02-01T04:58:56.069Z,0
2023-02-01T04:59:56.073Z,0
2023-02-01T05:00:56.084Z,0
2023-02-01T05:01:56.082Z,0
2023-02-01T05:02:56.067Z,0
2023-02-01T05:03:56.061Z,0
2023-02-01T05:04:56.118Z,0
2023-02-01T05:05:56.064Z,0
2023-02-01T05:06:56.055Z,0
2023-02-01T05:07:56.090Z,0
2023-02-01T05:08:56.073Z,0
2023-02-01T05:09:56.057Z,0
2023-02-01T05:10:56.059Z,0
2023-02-01T05:11:56.059Z,0
2023-02-01T05:12:56.059Z,0
2023-02-01T05:13:56.063Z,0
2023-02-01T05:14:56.068Z,0
2023-02-01T05:15:56.113Z,0
2023-02-01T05:16:56.067Z,3.6
2023-02-01T05:17:56.070Z,3.7
2023-02-01T05:18:56.068Z,1.7000000000000002
2023-02-01T05:19:56.076Z,0
2023-02-01T05:20:56.081Z,0
2023-02-01T05:21:56.064Z,0
2023-02-01T05:22:56.077Z,0
2023-02-01T05:23:56.067Z,0
2023-02-01T05:24:56.076Z,0
2023-02-01T05:25:56.064Z,0
2023-02-01T05:26:56.073Z,0
2023-02-01T05:27:56.079Z,0
2023-02-01T05:28:56.072Z,0
2023-02-01T05:29:56.085Z,0
2023-02-01T05:30:56.197Z,0
2023-02-01T05:31:56.186Z,0
2023-02-01T05:32:56.068Z,0
2023-02-01T05:33:56.068Z,0
2023-02-01T05:34:56.063Z,0
2023-02-01T05:35:56.067Z,0
2023-02-01T05:36:56.102Z,0
2023-02-01T05:37:56.068Z,0
2023-02-01T05:38:56.067Z,0
2023-02-01T05:39:56.081Z,0
2023-02-01T05:40:56.074Z,0
2023-02-01T05:41:56.087Z,0
2023-02-01T05:42:56.076Z,0
2023-02-01T05:43:56.079Z,0
2023-02-01T05:44:56.068Z,0
2023-02-01T05:45:56.127Z,0
2023-02-01T05:46:56.075Z,1.6
2023-02-01T05:47:56.082Z,0
2023-02-01T05:48:56.096Z,0
2023-02-01T05:49:56.076Z,0
2023-02-01T05:50:56.087Z,0
2023-02-01T05:51:56.080Z,0
2023-02-01T05:52:56.112Z,0
2023-02-01T05:53:56.078Z,3.2
2023-02-01T05:54:56.091Z,4
2023-02-01T05:55:56.079Z,0
2023-02-01T05:56:56.080Z,0
2023-02-01T05:57:56.076Z,0
2023-02-01T05:58:56.076Z,0
2023-02-01T05:59:56.111Z,0
2023-02-01T06:00:56.070Z,0
2023-02-01T06:01:56.066Z,0
2023-02-01T06:02:56.127Z,4.5
2023-02-01T06:03:56.136Z,3.9000000000000004
2023-02-01T06:04:56.088Z,3.4000000000000004
2023-02-01T06:05:56.091Z,0
2023-02-01T06:06:56.114Z,0
2023-02-01T06:07:56.071Z,0
2023-02-01T06:08:56.097Z,0
2023-02-01T06:09:56.072Z,0
2023-02-01T06:10:56.078Z,0
2023-02-01T06:11:56.089Z,0
2023-02-01T06:12:56.078Z,0
2023-02-01T06:13:56.080Z,0
2023-02-01T06:14:56.081Z,0
2023-02-01T06:15:56.126Z,0
2023-02-01T06:16:56.100Z,0
2023-02-01T06:17:56.083Z,0
2023-02-01T06:18:56.085Z,0
2023-02-01T06:19:56.081Z,0
2023-02-01T06:20:56.084Z,0
2023-02-01T06:21:56.090Z,0
2023-02-01T06:22:56.098Z,0
2023-02-01T06:23:56.090Z,0
2023-02-01T06:24:56.127Z,0
2023-02-01T06:25:56.095Z,4.7
2023-02-01T06:26:56.098Z,4.6000000000000005
2023-02-01T06:27:56.111Z,0
2023-02-01T06:28:56.105Z,0
2023-02-01T06:29:56.114Z,0
2023-02-01T06:30:56.176Z,0
2023-02-01T06:31:56.181Z,0
2023-02-01T06:32:56.101Z,5.5
2023-02-01T06:33:56.106Z,0.5
2023-02-01T06:34:56.112Z,0
2023-02-01T06:35:56.120Z,0
2023-02-01T06:36:56.116Z,0
2023-02-01T06:37:56.116Z,0
2023-02-01T06:38:56.130Z,3.6
2023-02-01T06:39:56.122Z,6.4
2023-02-01T06:40:56.162Z,3.8000000000000003
2023-02-01T06:41:56.124Z,7.1000000000000005
2023-02-01T06:42:56.121Z,5.1000000000000005
2023-02-01T06:43:56.122Z,0
2023-02-01T06:44:56.127Z,4.1000000000000005
2023-02-01T06:45:56.162Z,2.8000000000000003
2023-02-01T06:46:56.219Z,0.8
2023-02-01T06:47:56.121Z,0
2023-02-01T06:48:56.133Z,0
2023-02-01T06:49:56.132Z,0
2023-02-01T06:50:56.132Z,4.4
2023-02-01T06:51:56.134Z,1.4000000000000001
2023-02-01T06:52:56.147Z,4.5
2023-02-01T06:53:56.134Z,4.6000000000000005
2023-02-01T06:54:56.134Z,1.3
2023-02-01T06:55:56.159Z,0
2023-02-01T06:56:56.159Z,0
2023-02-01T06:57:56.142Z,6.6000000000000005
2023-02-01T06:58:56.129Z,3.6
2023-02-01T06:59:56.132Z,1.4000000000000001
2023-02-01T07:00:56.241Z,7.6000000000000005
2023-02-01T07:01:56.216Z,5.5
2023-02-01T07:02:56.157Z,0
2023-02-01T07:03:56.155Z,0
2023-02-01T07:04:56.151Z,0
2023-02-01T07:05:56.153Z,0
2023-02-01T07:06:56.168Z,4.7
2023-02-01T07:07:56.163Z,2.8000000000000003
2023-02-01T07:08:56.157Z,5.1000000000000005
2023-02-01T07:09:56.156Z,1.1
2023-02-01T07:10:56.148Z,6.300000000000001
2023-02-01T07:11:56.167Z,6.6000000000000005
2023-02-01T07:12:56.184Z,1.9000000000000001
2023-02-01T07:13:56.169Z,0
2023-02-01T07:14:56.167Z,1.2000000000000002
2023-02-01T07:15:56.180Z,1.2000000000000002
2023-02-01T07:16:56.161Z,0
2023-02-01T07:17:56.183Z,0
2023-02-01T07:18:56.171Z,6.6000000000000005
2023-02-01T07:19:56.177Z,5.2
2023-02-01T07:20:56.168Z,3.5
2023-02-01T07:21:56.178Z,6.2
2023-02-01T07:22:56.195Z,7.1000000000000005
2023-02-01T07:23:56.183Z,9.4
2023-02-01T07:24:56.198Z,4.7
2023-02-01T07:25:56.185Z,1.7000000000000002
2023-02-01T07:26:56.206Z,2.9000000000000004
2023-02-01T07:27:56.197Z,5.4
2023-02-01T07:28:56.214Z,9.200000000000001
2023-02-01T07:29:56.172Z,12
2023-02-01T07:30:56.222Z,11.5
2023-02-01T07:31:56.179Z,13.3
2023-02-01T07:32:56.236Z,6.800000000000001
2023-02-01T07:33:56.180Z,9.4
2023-02-01T07:34:56.195Z,13.600000000000001
2023-02-01T07:35:56.182Z,4.7
2023-02-01T07:36:56.189Z,9.200000000000001
2023-02-01T07:37:56.187Z,7.1000000000000005
2023-02-01T07:38:56.765Z,8.4
2023-02-01T07:39:56.245Z,11.200000000000001
2023-02-01T07:40:56.195Z,10
2023-02-01T07:41:56.215Z,12.5
2023-02-01T07:42:56.211Z,8.6
2023-02-01T07:43:56.196Z,13.9
2023-02-01T07:44:56.242Z,4.800000000000001
2023-02-01T07:45:56.233Z,14.600000000000001
2023-02-01T07:46:56.217Z,14.8
2023-02-01T07:47:56.213Z,8.3
2023-02-01T07:48:56.202Z,10.8
2023-02-01T07:49:56.226Z,7.5
2023-02-01T07:50:56.232Z,6.300000000000001
2023-02-01T07:51:56.218Z,8.8
2023-02-01T07:52:56.211Z,5.6000000000000005
2023-02-01T07:53:56.497Z,1.9000000000000001
2023-02-01T07:54:56.216Z,6.6000000000000005
2023-02-01T07:55:56.211Z,6.5
2023-02-01T07:56:56.217Z,10.5
2023-02-01T07:57:56.228Z,4.4
2023-02-01T07:58:56.213Z,19.6
2023-02-01T07:59:56.217Z,11.200000000000001
2023-02-01T08:00:56.344Z,16.5
2023-02-01T08:01:56.273Z,10
2023-02-01T08:02:56.226Z,11
2023-02-01T08:03:56.219Z,11.600000000000001
2023-02-01T08:04:56.236Z,13.700000000000001
2023-02-01T08:05:56.229Z,10.9
2023-02-01T08:06:56.243Z,13.3
2023-02-01T08:07:56.243Z,9.600000000000001
2023-02-01T08:08:56.240Z,9.3
2023-02-01T08:09:56.229Z,6.7
2023-02-01T08:10:56.234Z,8.9
2023-02-01T08:11:56.223Z,6.9
2023-02-01T08:12:56.228Z,8.5
2023-02-01T08:13:56.273Z,10
2023-02-01T08:14:56.241Z,7.9
2023-02-01T08:15:56.237Z,8.4
2023-02-01T08:16:56.247Z,9.4
2023-02-01T08:17:56.234Z,6.300000000000001
2023-02-01T08:18:56.235Z,3.2
2023-02-01T08:19:56.229Z,3.1
2023-02-01T08:20:56.252Z,6.300000000000001
2023-02-01T08:21:56.227Z,9
2023-02-01T08:22:56.248Z,12.9
2023-02-01T08:23:56.241Z,2.2
2023-02-01T08:24:56.254Z,1.3
2023-02-01T08:25:56.241Z,0.6000000000000001
2023-02-01T08:26:56.339Z,0
2023-02-01T08:27:56.235Z,0
2023-02-01T08:28:56.259Z,5
2023-02-01T08:29:56.251Z,6.5
2023-02-01T08:30:56.289Z,5.9
2023-02-01T08:31:56.275Z,0
2023-02-01T08:32:56.272Z,0
2023-02-01T08:33:56.244Z,6.1000000000000005
2023-02-01T08:34:56.242Z,8.3
2023-02-01T08:35:56.250Z,15.100000000000001
2023-02-01T08:36:56.250Z,7.2
2023-02-01T08:37:56.271Z,0.8
2023-02-01T08:38:56.276Z,5.6000000000000005
2023-02-01T08:39:56.257Z,3.3000000000000003
2023-02-01T08:40:56.269Z,5.6000000000000005
2023-02-01T08:41:56.262Z,6.800000000000001
2023-02-01T08:42:56.249Z,8.6
2023-02-01T08:43:56.273Z,4.5
2023-02-01T08:44:56.253Z,1.9000000000000001
2023-02-01T08:45:56.986Z,0
2023-02-01T08:46:56.243Z,0
2023-02-01T08:47:56.246Z,0
2023-02-01T08:48:56.283Z,0
2023-02-01T08:49:56.256Z,4.3
2023-02-01T08:50:56.256Z,5.4
2023-02-01T08:51:58.426Z,4.2
2023-02-01T08:52:56.258Z,8
2023-02-01T08:53:56.251Z,7.9
2023-02-01T08:54:56.254Z,8.5
2023-02-01T08:55:56.253Z,10.100000000000001
2023-02-01T08:56:56.274Z,3.6
2023-02-01T08:57:56.257Z,0
2023-02-01T08:58:56.260Z,2.9000000000000004
2023-02-01T08:59:56.299Z,0
2023-02-01T09:00:56.318Z,4.6000000000000005
2023-02-01T09:01:56.268Z,2.7
2023-02-01T09:02:56.261Z,0
2023-02-01T09:03:56.287Z,0
2023-02-01T09:04:56.278Z,1.5
2023-02-01T09:05:56.259Z,1.3
2023-02-01T09:06:56.252Z,0
2023-02-01T09:07:56.260Z,0
2023-02-01T09:08:56.270Z,0
2023-02-01T09:09:56.259Z,1.1
2023-02-01T09:10:56.257Z,0
2023-02-01T09:11:56.260Z,6.4
2023-02-01T09:12:56.268Z,4.5
2023-02-01T09:13:56.267Z,8.4
2023-02-01T09:14:56.267Z,7.9
2023-02-01T09:15:56.292Z,3.4000000000000004
2023-02-01T09:16:56.268Z,1.2000000000000002
2023-02-01T09:17:56.277Z,1.9000000000000001
2023-02-01T09:19:14.794Z,2.8000000000000003
2023-02-01T09:19:56.267Z,0
2023-02-01T09:20:56.292Z,2.3000000000000003
2023-02-01T09:21:56.262Z,0.7000000000000001
2023-02-01T09:22:56.273Z,1.2000000000000002
2023-02-01T09:23:56.262Z,0
2023-02-01T09:24:56.282Z,0
2023-02-01T09:25:56.266Z,0
2023-02-01T09:26:56.316Z,0
2023-02-01T09:27:56.274Z,0
2023-02-01T09:28:56.269Z,0
2023-02-01T09:29:56.287Z,4.9
2023-02-01T09:30:56.345Z,9.200000000000001
2023-02-01T09:32:03.087Z,4.6000000000000005
2023-02-01T09:32:56.260Z,2.2
2023-02-01T09:33:56.268Z,9.200000000000001
2023-02-01T09:34:56.270Z,5.800000000000001
2023-02-01T09:35:56.253Z,7.300000000000001
2023-02-01T09:36:56.284Z,7.2
2023-02-01T09:37:56.284Z,7.7
2023-02-01T09:38:56.261Z,1.6
2023-02-01T09:39:56.262Z,1.8
2023-02-01T09:40:56.265Z,4.800000000000001
2023-02-01T09:41:56.250Z,7.7
2023-02-01T09:42:56.283Z,9.4
2023-02-01T09:43:56.267Z,12.200000000000001
2023-02-01T09:44:56.273Z,2.9000000000000004
2023-02-01T09:45:56.285Z,9.200000000000001
2023-02-01T09:46:56.275Z,1.5
2023-02-01T09:47:56.278Z,0
2023-02-01T09:48:56.287Z,2.7
2023-02-01T09:49:56.296Z,1.4000000000000001
2023-02-01T09:50:56.302Z,0
2023-02-01T09:51:56.268Z,0
2023-02-01T09:52:56.297Z,6.300000000000001
2023-02-01T09:53:56.281Z,0
2023-02-01T09:54:56.271Z,2.6
2023-02-01T09:55:56.285Z,0
2023-02-01T09:56:56.282Z,2.3000000000000003
2023-02-01T09:57:56.284Z,0
2023-02-01T09:58:56.295Z,4
2023-02-01T09:59:57.859Z,4.1000000000000005
2023-02-01T10:00:56.308Z,4.4
2023-02-01T10:01:56.288Z,2
2023-02-01T10:02:56.286Z,0
2023-02-01T10:03:56.311Z,0
2023-02-01T10:04:56.298Z,5.9
2023-02-01T10:05:56.302Z,2.5
2023-02-01T10:06:56.309Z,1.9000000000000001
2023-02-01T10:07:56.300Z,6
2023-02-01T10:08:56.340Z,5.5
2023-02-01T10:09:56.313Z,6
2023-02-01T10:10:56.316Z,3.8000000000000003
2023-02-01T10:11:56.308Z,0
2023-02-01T10:12:56.323Z,0
2023-02-01T10:13:56.304Z,5.300000000000001
2023-02-01T10:14:56.316Z,2.4000000000000004
2023-02-01T10:15:56.499Z,8.5
2023-02-01T10:16:56.383Z,19.3
2023-02-01T10:17:57.998Z,6.4
2023-02-01T10:18:56.329Z,11.3
2023-02-01T10:19:56.339Z,13.3
2023-02-01T10:20:56.327Z,12
2023-02-01T10:21:56.319Z,10.600000000000001
2023-02-01T10:23:16.239Z,10.600000000000001
2023-02-01T10:23:58.889Z,4.1000000000000005
2023-02-01T10:24:56.353Z,5.800000000000001
2023-02-01T10:25:56.333Z,2.8000000000000003
2023-02-01T10:26:56.466Z,7.300000000000001
2023-02-01T10:27:56.321Z,7.1000000000000005
2023-02-01T10:28:56.339Z,3.2
2023-02-01T10:29:56.328Z,6.1000000000000005
2023-02-01T10:30:56.451Z,0
2023-02-01T10:31:56.480Z,3.8000000000000003
2023-02-01T10:32:56.351Z,2.6
2023-02-01T10:33:56.353Z,0
2023-02-01T10:34:56.350Z,0
2023-02-01T10:35:56.351Z,0
2023-02-01T10:36:56.369Z,0
2023-02-01T10:37:56.328Z,0
2023-02-01T10:38:56.345Z,0
2023-02-01T10:39:56.358Z,0
2023-02-01T10:40:56.363Z,0
2023-02-01T10:41:56.347Z,0
2023-02-01T10:42:56.341Z,0
2023-02-01T10:43:56.352Z,4.4
2023-02-01T10:44:56.353Z,0
2023-02-01T10:45:56.343Z,0
2023-02-01T10:46:56.355Z,10.100000000000001
2023-02-01T10:47:56.354Z,2.3000000000000003
2023-02-01T10:48:56.345Z,9.700000000000001
2023-02-01T10:49:56.357Z,7.7
2023-02-01T10:50:56.352Z,0
2023-02-01T10:51:56.353Z,0
2023-02-01T10:52:56.356Z,0
2023-02-01T10:53:56.370Z,0
2023-02-01T10:54:56.369Z,0
2023-02-01T10:55:56.369Z,6.1000000000000005
2023-02-01T10:56:56.387Z,8.3
2023-02-01T10:57:56.359Z,0
2023-02-01T10:58:56.369Z,0
2023-02-01T10:59:56.376Z,0
2023-02-01T11:00:56.381Z,0
2023-02-01T11:01:59.544Z,5.4
2023-02-01T11:02:56.458Z,5.1000000000000005
2023-02-01T11:03:56.373Z,6.6000000000000005
2023-02-01T11:04:56.374Z,8.9
2023-02-01T11:05:56.383Z,7.7
2023-02-01T11:06:56.399Z,9.9
2023-02-01T11:07:56.383Z,2.9000000000000004
2023-02-01T11:08:56.381Z,2.3000000000000003
2023-02-01T11:09:56.390Z,0.5
2023-02-01T11:10:56.380Z,0
2023-02-01T11:11:56.381Z,7.4
2023-02-01T11:12:56.415Z,3.2
2023-02-01T11:13:56.398Z,6.4
2023-02-01T11:14:56.381Z,9.200000000000001
2023-02-01T11:15:57.226Z,3.3000000000000003
2023-02-01T11:16:56.413Z,2.6
2023-02-01T11:17:56.400Z,4.5
2023-02-01T11:18:56.390Z,8.3
2023-02-01T11:19:56.386Z,8.3
2023-02-01T11:20:56.398Z,0
2023-02-01T11:21:56.398Z,0
2023-02-01T11:22:56.396Z,0
2023-02-01T11:23:56.390Z,0
2023-02-01T11:24:56.400Z,4
2023-02-01T11:25:56.395Z,4.2
2023-02-01T11:26:56.494Z,0
2023-02-01T11:27:56.402Z,5.300000000000001
2023-02-01T11:28:56.425Z,0
2023-02-01T11:29:56.407Z,0
2023-02-01T11:30:56.519Z,0
2023-02-01T11:31:56.446Z,7.1000000000000005
2023-02-01T11:32:56.418Z,1.9000000000000001
2023-02-01T11:33:56.415Z,0
2023-02-01T11:34:56.423Z,0
2023-02-01T11:35:56.422Z,0
2023-02-01T11:36:56.438Z,3.6
2023-02-01T11:37:56.412Z,0
2023-02-01T11:38:56.427Z,0
2023-02-01T11:39:56.411Z,0
2023-02-01T11:40:56.418Z,0
2023-02-01T11:41:56.426Z,0
2023-02-01T11:42:56.422Z,7.1000000000000005
2023-02-01T11:43:56.440Z,10.8
2023-02-01T11:44:56.449Z,0.9
2023-02-01T11:45:56.419Z,4.9
2023-02-01T11:46:56.453Z,0
2023-02-01T11:47:56.437Z,0
2023-02-01T11:48:56.445Z,0
2023-02-01T11:49:56.428Z,0
2023-02-01T11:50:56.465Z,0
2023-02-01T11:51:56.430Z,0
2023-02-01T11:52:56.442Z,0
2023-02-01T11:53:56.469Z,7.6000000000000005
2023-02-01T11:54:56.488Z,8.6
2023-02-01T11:55:56.434Z,3
2023-02-01T11:56:56.439Z,1.6
2023-02-01T11:57:56.428Z,4.4
2023-02-01T11:58:56.439Z,12.3
2023-02-01T11:59:57.218Z,9.600000000000001
2023-02-01T12:00:56.477Z,6.300000000000001
2023-02-01T12:01:56.524Z,13.3
2023-02-01T12:02:56.485Z,11
2023-02-01T12:03:56.466Z,8
2023-02-01T12:04:56.465Z,12.5
2023-02-01T12:05:56.477Z,4.5
2023-02-01T12:06:56.449Z,7.1000000000000005
2023-02-01T12:07:56.464Z,9.9
2023-02-01T12:08:56.472Z,3.8000000000000003
2023-02-01T12:09:56.461Z,7
2023-02-01T12:10:56.465Z,5.2
2023-02-01T12:11:56.468Z,10.600000000000001
2023-02-01T12:12:56.465Z,6
2023-02-01T12:13:56.467Z,7.9
2023-02-01T12:14:56.471Z,9.5
2023-02-01T12:15:56.474Z,11.700000000000001
2023-02-01T12:16:56.519Z,13.700000000000001
2023-02-01T12:17:56.468Z,17.7
2023-02-01T12:18:56.480Z,14.3
2023-02-01T12:19:56.983Z,15.8
2023-02-01T12:20:56.475Z,10.4
2023-02-01T12:21:56.481Z,8.4
2023-02-01T12:22:56.481Z,13.700000000000001
2023-02-01T12:23:56.502Z,7.2
2023-02-01T12:24:56.500Z,10.3
2023-02-01T12:25:56.495Z,15.5
2023-02-01T12:26:56.540Z,12.9
2023-02-01T12:27:56.486Z,18.6
2023-02-01T12:28:56.483Z,13
2023-02-01T12:29:56.494Z,10.200000000000001
2023-02-01T12:30:56.551Z,14
2023-02-01T12:31:56.525Z,14
2023-02-01T12:32:56.523Z,9.4
2023-02-01T12:33:56.497Z,12
2023-02-01T12:34:56.494Z,10.3
2023-02-01T12:35:56.516Z,8.700000000000001
2023-02-01T12:36:56.509Z,11.9
2023-02-01T12:37:56.585Z,8.8
2023-02-01T12:38:56.513Z,7
2023-02-01T12:39:56.508Z,5.2
2023-02-01T12:40:56.504Z,5.800000000000001
2023-02-01T12:41:56.521Z,11.600000000000001
2023-02-01T12:42:56.540Z,16
2023-02-01T12:43:56.523Z,14.3
2023-02-01T12:44:56.512Z,8.1
2023-02-01T12:45:56.538Z,2.6
2023-02-01T12:46:56.505Z,8
2023-02-01T12:47:56.512Z,16.8
2023-02-01T12:48:56.545Z,10.4
2023-02-01T12:49:56.521Z,9.200000000000001
2023-02-01T12:50:56.512Z,9.600000000000001
2023-02-01T12:51:56.531Z,19.8
2023-02-01T12:52:56.509Z,26.1
2023-02-01T12:53:56.532Z,17.1
2023-02-01T12:54:56.525Z,9.700000000000001
2023-02-01T12:55:56.523Z,14.9
2023-02-01T12:56:56.523Z,5.7
2023-02-01T12:57:56.524Z,10.700000000000001
2023-02-01T12:58:56.513Z,5.9
2023-02-01T12:59:56.518Z,3.4000000000000004
2023-02-01T13:00:56.546Z,4.5
2023-02-01T13:01:56.544Z,6
2023-02-01T13:02:56.554Z,7